sensor_id;sensor_type;location;lat;lon;timestamp;P1;durP1;ratioP1;P2;durP2;ratioP2
11504;SDS011;5809;53.262;10.408;2024-02-16T00:00:22;8.00;;;4.15;;
11504;SDS011;5809;53.262;10.408;2024-02-16T00:02:50;4.57;;;4.07;;
11504;SDS011;5809;53.262;10.408;2024-02-16T00:05:18;9.23;;;4.20;;
11504;SDS011;5809;53.262;10.408;2024-02-16T00:07:45;6.43;;;3.97;;
11504;SDS011;5809;53.262;10.408;2024-02-16T00:10:12;10.15;;;4.57;;
11504;SDS011;5809;53.262;10.408;2024-02-16T00:12:39;7.80;;;4.30;;
11504;SDS011;5809;53.262;10.408;2024-02-16T00:15:07;7.05;;;4.75;;
11504;SDS011;5809;53.262;10.408;2024-02-16T00:17:35;8.40;;;4.30;;
11504;SDS011;5809;53.262;10.408;2024-02-16T00:20:03;9.80;;;4.95;;
11504;SDS011;5809;53.262;10.408;2024-02-16T00:22:33;6.45;;;4.63;;
11504;SDS011;5809;53.262;10.408;2024-02-16T00:25:00;9.40;;;4.72;;
11504;SDS011;5809;53.262;10.408;2024-02-16T00:27:28;8.00;;;4.85;;
11504;SDS011;5809;53.262;10.408;2024-02-16T00:29:55;8.35;;;5.15;;
11504;SDS011;5809;53.262;10.408;2024-02-16T00:32:22;11.13;;;5.32;;
11504;SDS011;5809;53.262;10.408;2024-02-16T00:34:49;6.38;;;4.57;;
11504;SDS011;5809;53.262;10.408;2024-02-16T00:37:18;7.95;;;4.97;;
11504;SDS011;5809;53.262;10.408;2024-02-16T00:39:47;7.53;;;4.60;;
11504;SDS011;5809;53.262;10.408;2024-02-16T00:42:14;10.63;;;5.10;;
11504;SDS011;5809;53.262;10.408;2024-02-16T00:44:41;8.27;;;4.68;;
11504;SDS011;5809;53.262;10.408;2024-02-16T00:47:08;7.40;;;4.35;;
11504;SDS011;5809;53.262;10.408;2024-02-16T00:49:35;9.70;;;4.72;;
11504;SDS011;5809;53.262;10.408;2024-02-16T00:52:02;9.75;;;4.55;;
11504;SDS011;5809;53.262;10.408;2024-02-16T00:54:30;9.27;;;4.90;;
11504;SDS011;5809;53.262;10.408;2024-02-16T00:56:58;10.02;;;4.88;;
11504;SDS011;5809;53.262;10.408;2024-02-16T00:59:27;9.18;;;4.78;;
11504;SDS011;5809;53.262;10.408;2024-02-16T01:01:54;8.30;;;4.90;;
11504;SDS011;5809;53.262;10.408;2024-02-16T01:04:21;7.45;;;4.72;;
11504;SDS011;5809;53.262;10.408;2024-02-16T01:06:47;8.60;;;4.85;;
11504;SDS011;5809;53.262;10.408;2024-02-16T01:09:15;10.48;;;4.97;;
11504;SDS011;5809;53.262;10.408;2024-02-16T01:11:42;7.07;;;4.68;;
11504;SDS011;5809;53.262;10.408;2024-02-16T01:14:10;7.35;;;4.75;;
11504;SDS011;5809;53.262;10.408;2024-02-16T01:16:37;6.60;;;4.10;;
11504;SDS011;5809;53.262;10.408;2024-02-16T01:19:04;6.43;;;4.40;;
11504;SDS011;5809;53.262;10.408;2024-02-16T01:21:31;9.90;;;4.32;;
11504;SDS011;5809;53.262;10.408;2024-02-16T01:23:58;6.78;;;4.28;;
11504;SDS011;5809;53.262;10.408;2024-02-16T01:26:26;6.53;;;4.10;;
11504;SDS011;5809;53.262;10.408;2024-02-16T01:28:52;9.73;;;4.28;;
11504;SDS011;5809;53.262;10.408;2024-02-16T01:31:21;5.53;;;4.25;;
11504;SDS011;5809;53.262;10.408;2024-02-16T01:33:47;6.70;;;4.30;;
11504;SDS011;5809;53.262;10.408;2024-02-16T01:36:14;9.32;;;4.63;;
11504;SDS011;5809;53.262;10.408;2024-02-16T01:38:41;6.97;;;4.65;;
11504;SDS011;5809;53.262;10.408;2024-02-16T01:41:08;8.68;;;4.40;;
11504;SDS011;5809;53.262;10.408;2024-02-16T01:43:36;5.90;;;4.30;;
11504;SDS011;5809;53.262;10.408;2024-02-16T01:46:03;5.43;;;4.10;;
11504;SDS011;5809;53.262;10.408;2024-02-16T01:48:31;7.43;;;4.15;;
11504;SDS011;5809;53.262;10.408;2024-02-16T01:50:58;7.10;;;4.47;;
11504;SDS011;5809;53.262;10.408;2024-02-16T01:53:27;8.82;;;4.35;;
11504;SDS011;5809;53.262;10.408;2024-02-16T01:55:54;7.55;;;4.50;;
11504;SDS011;5809;53.262;10.408;2024-02-16T01:58:21;7.35;;;4.80;;
11504;SDS011;5809;53.262;10.408;2024-02-16T02:00:48;6.30;;;4.20;;
11504;SDS011;5809;53.262;10.408;2024-02-16T02:03:15;7.53;;;4.40;;
11504;SDS011;5809;53.262;10.408;2024-02-16T02:05:45;8.95;;;4.57;;
11504;SDS011;5809;53.262;10.408;2024-02-16T02:08:12;8.02;;;4.80;;
11504;SDS011;5809;53.262;10.408;2024-02-16T02:10:40;7.50;;;4.35;;
11504;SDS011;5809;53.262;10.408;2024-02-16T02:13:07;7.97;;;4.43;;
11504;SDS011;5809;53.262;10.408;2024-02-16T02:15:33;9.25;;;4.78;;
11504;SDS011;5809;53.262;10.408;2024-02-16T02:18:01;6.60;;;4.80;;
11504;SDS011;5809;53.262;10.408;2024-02-16T02:20:27;8.73;;;5.20;;
11504;SDS011;5809;53.262;10.408;2024-02-16T02:22:56;9.25;;;4.78;;
11504;SDS011;5809;53.262;10.408;2024-02-16T02:25:23;8.57;;;4.80;;
11504;SDS011;5809;53.262;10.408;2024-02-16T02:27:51;7.78;;;5.20;;
11504;SDS011;5809;53.262;10.408;2024-02-16T02:30:19;7.82;;;4.75;;
11504;SDS011;5809;53.262;10.408;2024-02-16T02:32:47;10.60;;;4.90;;
11504;SDS011;5809;53.262;10.408;2024-02-16T02:35:14;9.05;;;4.72;;
11504;SDS011;5809;53.262;10.408;2024-02-16T02:37:42;6.43;;;4.68;;
11504;SDS011;5809;53.262;10.408;2024-02-16T02:40:11;7.85;;;4.68;;
11504;SDS011;5809;53.262;10.408;2024-02-16T02:42:38;7.30;;;4.60;;
11504;SDS011;5809;53.262;10.408;2024-02-16T02:45:05;7.22;;;4.78;;
11504;SDS011;5809;53.262;10.408;2024-02-16T02:47:33;8.32;;;4.72;;
11504;SDS011;5809;53.262;10.408;2024-02-16T02:49:59;8.23;;;4.57;;
11504;SDS011;5809;53.262;10.408;2024-02-16T02:52:26;6.95;;;4.40;;
11504;SDS011;5809;53.262;10.408;2024-02-16T02:54:53;5.60;;;4.20;;
11504;SDS011;5809;53.262;10.408;2024-02-16T02:57:22;8.55;;;4.22;;
11504;SDS011;5809;53.262;10.408;2024-02-16T02:59:48;9.45;;;4.05;;
11504;SDS011;5809;53.262;10.408;2024-02-16T03:02:15;5.63;;;4.07;;
11504;SDS011;5809;53.262;10.408;2024-02-16T03:04:42;9.30;;;4.47;;
11504;SDS011;5809;53.262;10.408;2024-02-16T03:07:09;6.75;;;3.80;;
11504;SDS011;5809;53.262;10.408;2024-02-16T03:09:36;4.45;;;3.95;;
11504;SDS011;5809;53.262;10.408;2024-02-16T03:12:03;5.93;;;4.22;;
11504;SDS011;5809;53.262;10.408;2024-02-16T03:14:32;8.57;;;4.28;;
11504;SDS011;5809;53.262;10.408;2024-02-16T03:16:59;10.27;;;4.28;;
11504;SDS011;5809;53.262;10.408;2024-02-16T03:19:25;8.10;;;4.22;;
11504;SDS011;5809;53.262;10.408;2024-02-16T03:21:52;8.63;;;4.40;;
11504;SDS011;5809;53.262;10.408;2024-02-16T03:24:19;7.72;;;3.85;;
11504;SDS011;5809;53.262;10.408;2024-02-16T03:26:47;7.85;;;4.13;;
11504;SDS011;5809;53.262;10.408;2024-02-16T03:29:14;6.28;;;3.97;;
11504;SDS011;5809;53.262;10.408;2024-02-16T03:31:42;5.93;;;3.75;;
11504;SDS011;5809;53.262;10.408;2024-02-16T03:34:09;8.15;;;4.30;;
11504;SDS011;5809;53.262;10.408;2024-02-16T03:36:36;6.57;;;3.58;;
11504;SDS011;5809;53.262;10.408;2024-02-16T03:39:03;5.78;;;3.92;;
11504;SDS011;5809;53.262;10.408;2024-02-16T03:41:31;7.75;;;3.53;;
11504;SDS011;5809;53.262;10.408;2024-02-16T03:43:58;5.40;;;3.60;;
11504;SDS011;5809;53.262;10.408;2024-02-16T03:46:25;7.32;;;3.63;;
11504;SDS011;5809;53.262;10.408;2024-02-16T03:48:53;5.57;;;4.05;;
11504;SDS011;5809;53.262;10.408;2024-02-16T03:51:20;8.48;;;3.70;;
11504;SDS011;5809;53.262;10.408;2024-02-16T03:53:48;5.88;;;3.50;;
11504;SDS011;5809;53.262;10.408;2024-02-16T03:56:18;7.70;;;3.78;;
11504;SDS011;5809;53.262;10.408;2024-02-16T03:58:46;6.53;;;3.47;;
11504;SDS011;5809;53.262;10.408;2024-02-16T04:01:13;9.73;;;3.92;;
11504;SDS011;5809;53.262;10.408;2024-02-16T04:03:39;5.50;;;3.40;;
11504;SDS011;5809;53.262;10.408;2024-02-16T04:06:08;7.50;;;3.75;;
11504;SDS011;5809;53.262;10.408;2024-02-16T04:08:35;6.30;;;3.08;;
11504;SDS011;5809;53.262;10.408;2024-02-16T04:11:02;5.35;;;3.72;;
11504;SDS011;5809;53.262;10.408;2024-02-16T04:13:28;5.93;;;3.60;;
11504;SDS011;5809;53.262;10.408;2024-02-16T04:15:57;7.43;;;3.45;;
11504;SDS011;5809;53.262;10.408;2024-02-16T04:18:24;4.95;;;3.38;;
11504;SDS011;5809;53.262;10.408;2024-02-16T04:20:51;6.95;;;3.60;;
11504;SDS011;5809;53.262;10.408;2024-02-16T04:23:19;4.47;;;3.30;;
11504;SDS011;5809;53.262;10.408;2024-02-16T04:25:46;8.18;;;3.58;;
11504;SDS011;5809;53.262;10.408;2024-02-16T04:28:14;5.78;;;3.30;;
11504;SDS011;5809;53.262;10.408;2024-02-16T04:30:43;7.55;;;3.33;;
11504;SDS011;5809;53.262;10.408;2024-02-16T04:33:10;7.30;;;3.35;;
11504;SDS011;5809;53.262;10.408;2024-02-16T04:35:38;5.82;;;3.47;;
11504;SDS011;5809;53.262;10.408;2024-02-16T04:38:04;6.45;;;3.22;;
11504;SDS011;5809;53.262;10.408;2024-02-16T04:40:33;6.40;;;3.20;;
11504;SDS011;5809;53.262;10.408;2024-02-16T04:43:03;7.95;;;3.45;;
11504;SDS011;5809;53.262;10.408;2024-02-16T04:45:29;4.80;;;2.88;;
11504;SDS011;5809;53.262;10.408;2024-02-16T04:47:56;5.00;;;3.13;;
11504;SDS011;5809;53.262;10.408;2024-02-16T04:50:24;6.68;;;3.10;;
11504;SDS011;5809;53.262;10.408;2024-02-16T04:52:51;4.28;;;2.95;;
11504;SDS011;5809;53.262;10.408;2024-02-16T04:55:17;6.68;;;3.38;;
11504;SDS011;5809;53.262;10.408;2024-02-16T04:57:46;5.25;;;3.08;;
11504;SDS011;5809;53.262;10.408;2024-02-16T05:00:13;5.28;;;3.22;;
11504;SDS011;5809;53.262;10.408;2024-02-16T05:02:40;7.05;;;3.38;;
11504;SDS011;5809;53.262;10.408;2024-02-16T05:05:07;6.38;;;3.15;;
11504;SDS011;5809;53.262;10.408;2024-02-16T05:07:34;4.82;;;2.90;;
11504;SDS011;5809;53.262;10.408;2024-02-16T05:10:02;3.80;;;2.83;;
11504;SDS011;5809;53.262;10.408;2024-02-16T05:12:29;3.15;;;2.85;;
11504;SDS011;5809;53.262;10.408;2024-02-16T05:14:57;3.97;;;2.70;;
11504;SDS011;5809;53.262;10.408;2024-02-16T05:17:24;5.40;;;3.08;;
11504;SDS011;5809;53.262;10.408;2024-02-16T05:19:51;5.85;;;3.00;;
11504;SDS011;5809;53.262;10.408;2024-02-16T05:22:19;5.57;;;2.83;;
11504;SDS011;5809;53.262;10.408;2024-02-16T05:24:46;4.85;;;2.83;;
11504;SDS011;5809;53.262;10.408;2024-02-16T05:27:14;7.07;;;2.80;;
11504;SDS011;5809;53.262;10.408;2024-02-16T05:29:41;4.63;;;3.03;;
11504;SDS011;5809;53.262;10.408;2024-02-16T05:32:10;5.53;;;3.10;;
11504;SDS011;5809;53.262;10.408;2024-02-16T05:34:37;5.45;;;2.88;;
11504;SDS011;5809;53.262;10.408;2024-02-16T05:37:04;4.47;;;3.10;;
11504;SDS011;5809;53.262;10.408;2024-02-16T05:39:32;4.57;;;2.88;;
11504;SDS011;5809;53.262;10.408;2024-02-16T05:42:01;3.72;;;2.67;;
11504;SDS011;5809;53.262;10.408;2024-02-16T05:44:28;6.88;;;3.13;;
11504;SDS011;5809;53.262;10.408;2024-02-16T05:46:57;5.03;;;2.50;;
11504;SDS011;5809;53.262;10.408;2024-02-16T05:49:25;4.28;;;2.75;;
11504;SDS011;5809;53.262;10.408;2024-02-16T05:51:53;4.63;;;2.80;;
11504;SDS011;5809;53.262;10.408;2024-02-16T05:54:37;6.78;;;2.72;;
11504;SDS011;5809;53.262;10.408;2024-02-16T05:57:04;3.80;;;2.75;;
11504;SDS011;5809;53.262;10.408;2024-02-16T05:59:34;4.63;;;3.08;;
11504;SDS011;5809;53.262;10.408;2024-02-16T06:02:01;7.32;;;2.63;;
11504;SDS011;5809;53.262;10.408;2024-02-16T06:04:29;6.53;;;2.75;;
11504;SDS011;5809;53.262;10.408;2024-02-16T06:06:56;5.80;;;2.63;;
11504;SDS011;5809;53.262;10.408;2024-02-16T06:09:23;5.85;;;2.67;;
11504;SDS011;5809;53.262;10.408;2024-02-16T06:11:49;5.93;;;2.67;;
11504;SDS011;5809;53.262;10.408;2024-02-16T06:14:16;3.97;;;2.40;;
11504;SDS011;5809;53.262;10.408;2024-02-16T06:16:47;5.00;;;2.50;;
11504;SDS011;5809;53.262;10.408;2024-02-16T06:19:15;3.85;;;2.80;;
11504;SDS011;5809;53.262;10.408;2024-02-16T06:21:44;4.93;;;2.50;;
11504;SDS011;5809;53.262;10.408;2024-02-16T06:24:10;4.85;;;2.78;;
11504;SDS011;5809;53.262;10.408;2024-02-16T06:26:37;4.03;;;2.88;;
11504;SDS011;5809;53.262;10.408;2024-02-16T06:29:04;3.75;;;2.42;;
11504;SDS011;5809;53.262;10.408;2024-02-16T06:31:31;5.10;;;2.97;;
11504;SDS011;5809;53.262;10.408;2024-02-16T06:33:58;5.10;;;2.83;;
11504;SDS011;5809;53.262;10.408;2024-02-16T06:36:25;5.70;;;2.90;;
11504;SDS011;5809;53.262;10.408;2024-02-16T06:38:53;4.95;;;2.85;;
11504;SDS011;5809;53.262;10.408;2024-02-16T06:41:20;3.95;;;2.40;;
11504;SDS011;5809;53.262;10.408;2024-02-16T06:43:46;12.23;;;3.25;;
11504;SDS011;5809;53.262;10.408;2024-02-16T06:46:14;3.88;;;2.78;;
11504;SDS011;5809;53.262;10.408;2024-02-16T06:48:41;7.57;;;3.00;;
11504;SDS011;5809;53.262;10.408;2024-02-16T06:51:08;5.28;;;3.00;;
11504;SDS011;5809;53.262;10.408;2024-02-16T06:53:35;4.70;;;2.50;;
11504;SDS011;5809;53.262;10.408;2024-02-16T06:56:03;5.20;;;3.25;;
11504;SDS011;5809;53.262;10.408;2024-02-16T06:58:30;4.72;;;2.85;;
11504;SDS011;5809;53.262;10.408;2024-02-16T07:00:59;5.38;;;2.95;;
11504;SDS011;5809;53.262;10.408;2024-02-16T07:03:28;5.25;;;2.58;;
11504;SDS011;5809;53.262;10.408;2024-02-16T07:05:55;7.18;;;3.08;;
11504;SDS011;5809;53.262;10.408;2024-02-16T07:08:22;9.02;;;2.60;;
11504;SDS011;5809;53.262;10.408;2024-02-16T07:10:51;6.45;;;2.60;;
11504;SDS011;5809;53.262;10.408;2024-02-16T07:13:19;9.00;;;2.78;;
11504;SDS011;5809;53.262;10.408;2024-02-16T07:15:46;4.80;;;2.58;;
11504;SDS011;5809;53.262;10.408;2024-02-16T07:18:13;4.97;;;3.00;;
11504;SDS011;5809;53.262;10.408;2024-02-16T07:20:39;6.53;;;2.83;;
11504;SDS011;5809;53.262;10.408;2024-02-16T07:23:07;3.03;;;2.50;;
11504;SDS011;5809;53.262;10.408;2024-02-16T07:25:35;7.53;;;2.60;;
11504;SDS011;5809;53.262;10.408;2024-02-16T07:28:02;4.80;;;2.55;;
11504;SDS011;5809;53.262;10.408;2024-02-16T07:30:31;2.70;;;2.38;;
11504;SDS011;5809;53.262;10.408;2024-02-16T07:32:58;6.65;;;2.70;;
11504;SDS011;5809;53.262;10.408;2024-02-16T07:35:25;6.55;;;2.60;;
11504;SDS011;5809;53.262;10.408;2024-02-16T07:37:52;3.38;;;2.60;;
11504;SDS011;5809;53.262;10.408;2024-02-16T07:40:19;7.72;;;2.78;;
11504;SDS011;5809;53.262;10.408;2024-02-16T07:42:46;5.22;;;2.50;;
11504;SDS011;5809;53.262;10.408;2024-02-16T07:45:13;3.83;;;2.50;;
11504;SDS011;5809;53.262;10.408;2024-02-16T07:47:41;4.72;;;2.58;;
11504;SDS011;5809;53.262;10.408;2024-02-16T07:50:08;8.50;;;2.70;;
11504;SDS011;5809;53.262;10.408;2024-02-16T07:52:37;5.88;;;2.80;;
11504;SDS011;5809;53.262;10.408;2024-02-16T07:55:05;5.03;;;2.63;;
11504;SDS011;5809;53.262;10.408;2024-02-16T07:57:32;4.57;;;2.30;;
11504;SDS011;5809;53.262;10.408;2024-02-16T07:59:59;4.95;;;2.25;;
11504;SDS011;5809;53.262;10.408;2024-02-16T08:02:25;5.00;;;2.20;;
11504;SDS011;5809;53.262;10.408;2024-02-16T08:04:54;3.50;;;2.10;;
11504;SDS011;5809;53.262;10.408;2024-02-16T08:07:20;3.92;;;2.10;;
11504;SDS011;5809;53.262;10.408;2024-02-16T08:09:47;5.20;;;2.00;;
11504;SDS011;5809;53.262;10.408;2024-02-16T08:12:15;3.58;;;2.00;;
11504;SDS011;5809;53.262;10.408;2024-02-16T08:14:42;2.67;;;2.20;;
11504;SDS011;5809;53.262;10.408;2024-02-16T08:17:10;3.53;;;2.17;;
11504;SDS011;5809;53.262;10.408;2024-02-16T08:19:37;5.13;;;2.25;;
11504;SDS011;5809;53.262;10.408;2024-02-16T08:22:06;2.95;;;2.03;;
11504;SDS011;5809;53.262;10.408;2024-02-16T08:24:34;3.33;;;1.92;;
11504;SDS011;5809;53.262;10.408;2024-02-16T08:27:01;3.40;;;1.83;;
11504;SDS011;5809;53.262;10.408;2024-02-16T08:29:29;3.78;;;2.03;;
11504;SDS011;5809;53.262;10.408;2024-02-16T08:31:56;5.07;;;1.95;;
11504;SDS011;5809;53.262;10.408;2024-02-16T08:34:22;2.95;;;1.95;;
11504;SDS011;5809;53.262;10.408;2024-02-16T08:36:51;4.63;;;2.28;;
11504;SDS011;5809;53.262;10.408;2024-02-16T08:39:19;3.38;;;1.90;;
11504;SDS011;5809;53.262;10.408;2024-02-16T08:41:46;2.92;;;1.85;;
11504;SDS011;5809;53.262;10.408;2024-02-16T08:44:13;4.25;;;1.67;;
11504;SDS011;5809;53.262;10.408;2024-02-16T08:46:40;3.65;;;1.83;;
11504;SDS011;5809;53.262;10.408;2024-02-16T08:49:07;3.65;;;1.60;;
11504;SDS011;5809;53.262;10.408;2024-02-16T08:51:35;3.13;;;1.80;;
11504;SDS011;5809;53.262;10.408;2024-02-16T08:54:02;4.20;;;1.90;;
11504;SDS011;5809;53.262;10.408;2024-02-16T08:56:31;4.20;;;2.10;;
11504;SDS011;5809;53.262;10.408;2024-02-16T08:59:00;2.83;;;1.98;;
11504;SDS011;5809;53.262;10.408;2024-02-16T09:01:30;2.97;;;2.15;;
11504;SDS011;5809;53.262;10.408;2024-02-16T09:03:57;4.80;;;1.98;;
11504;SDS011;5809;53.262;10.408;2024-02-16T09:06:24;2.83;;;1.90;;
11504;SDS011;5809;53.262;10.408;2024-02-16T09:08:51;2.47;;;1.80;;
11504;SDS011;5809;53.262;10.408;2024-02-16T09:11:18;6.47;;;1.80;;
11504;SDS011;5809;53.262;10.408;2024-02-16T09:13:46;3.15;;;1.88;;
11504;SDS011;5809;53.262;10.408;2024-02-16T09:16:13;4.22;;;1.60;;
11504;SDS011;5809;53.262;10.408;2024-02-16T09:18:40;8.30;;;2.22;;
11504;SDS011;5809;53.262;10.408;2024-02-16T09:21:07;3.95;;;1.67;;
11504;SDS011;5809;53.262;10.408;2024-02-16T09:23:35;3.72;;;1.70;;
11504;SDS011;5809;53.262;10.408;2024-02-16T09:26:02;2.45;;;1.50;;
11504;SDS011;5809;53.262;10.408;2024-02-16T09:28:29;4.22;;;1.98;;
11504;SDS011;5809;53.262;10.408;2024-02-16T09:30:58;8.88;;;1.85;;
11504;SDS011;5809;53.262;10.408;2024-02-16T09:33:25;4.05;;;1.85;;
11504;SDS011;5809;53.262;10.408;2024-02-16T09:35:53;2.17;;;1.80;;
11504;SDS011;5809;53.262;10.408;2024-02-16T09:38:20;2.20;;;1.63;;
11504;SDS011;5809;53.262;10.408;2024-02-16T09:40:46;4.30;;;1.70;;
11504;SDS011;5809;53.262;10.408;2024-02-16T09:43:22;4.75;;;2.03;;
11504;SDS011;5809;53.262;10.408;2024-02-16T09:45:54;6.00;;;1.90;;
11504;SDS011;5809;53.262;10.408;2024-02-16T09:48:22;4.70;;;1.80;;
11504;SDS011;5809;53.262;10.408;2024-02-16T09:50:51;2.38;;;1.67;;
11504;SDS011;5809;53.262;10.408;2024-02-16T09:53:20;5.07;;;2.00;;
11504;SDS011;5809;53.262;10.408;2024-02-16T09:55:50;4.10;;;1.67;;
11504;SDS011;5809;53.262;10.408;2024-02-16T09:58:17;4.07;;;1.80;;
11504;SDS011;5809;53.262;10.408;2024-02-16T10:00:48;4.13;;;1.77;;
11504;SDS011;5809;53.262;10.408;2024-02-16T10:03:23;5.03;;;2.00;;
11504;SDS011;5809;53.262;10.408;2024-02-16T10:05:51;2.80;;;1.95;;
11504;SDS011;5809;53.262;10.408;2024-02-16T10:08:18;2.60;;;1.80;;
11504;SDS011;5809;53.262;10.408;2024-02-16T10:10:46;2.67;;;1.70;;
11504;SDS011;5809;53.262;10.408;2024-02-16T10:13:15;2.83;;;1.52;;
11504;SDS011;5809;53.262;10.408;2024-02-16T10:15:42;5.47;;;2.00;;
11504;SDS011;5809;53.262;10.408;2024-02-16T10:18:09;12.15;;;2.50;;
11504;SDS011;5809;53.262;10.408;2024-02-16T10:20:38;3.10;;;1.60;;
11504;SDS011;5809;53.262;10.408;2024-02-16T10:23:07;3.70;;;2.17;;
11504;SDS011;5809;53.262;10.408;2024-02-16T10:25:35;4.63;;;2.10;;
11504;SDS011;5809;53.262;10.408;2024-02-16T10:28:04;3.47;;;1.70;;
11504;SDS011;5809;53.262;10.408;2024-02-16T10:30:35;2.72;;;1.80;;
11504;SDS011;5809;53.262;10.408;2024-02-16T10:33:03;3.63;;;1.90;;
11504;SDS011;5809;53.262;10.408;2024-02-16T10:35:32;3.70;;;1.92;;
11504;SDS011;5809;53.262;10.408;2024-02-16T10:38:02;3.60;;;1.70;;
11504;SDS011;5809;53.262;10.408;2024-02-16T10:40:32;2.00;;;1.50;;
11504;SDS011;5809;53.262;10.408;2024-02-16T10:43:00;3.92;;;1.70;;
11504;SDS011;5809;53.262;10.408;2024-02-16T10:45:31;8.95;;;1.80;;
11504;SDS011;5809;53.262;10.408;2024-02-16T10:48:01;3.85;;;1.70;;
11504;SDS011;5809;53.262;10.408;2024-02-16T10:50:28;9.88;;;6.70;;
11504;SDS011;5809;53.262;10.408;2024-02-16T10:52:55;2.58;;;1.75;;
11504;SDS011;5809;53.262;10.408;2024-02-16T10:55:27;3.38;;;1.73;;
11504;SDS011;5809;53.262;10.408;2024-02-16T10:57:55;4.32;;;2.22;;
11504;SDS011;5809;53.262;10.408;2024-02-16T11:00:24;3.53;;;1.80;;
11504;SDS011;5809;53.262;10.408;2024-02-16T11:02:51;7.55;;;2.13;;
11504;SDS011;5809;53.262;10.408;2024-02-16T11:05:20;4.05;;;1.75;;
11504;SDS011;5809;53.262;10.408;2024-02-16T11:08:02;2.13;;;1.40;;
11504;SDS011;5809;53.262;10.408;2024-02-16T11:10:30;3.92;;;1.67;;
11504;SDS011;5809;53.262;10.408;2024-02-16T11:13:00;3.72;;;1.65;;
11504;SDS011;5809;53.262;10.408;2024-02-16T11:15:28;2.13;;;1.40;;
11504;SDS011;5809;53.262;10.408;2024-02-16T11:17:57;2.67;;;1.35;;
11504;SDS011;5809;53.262;10.408;2024-02-16T11:20:24;2.45;;;1.60;;
11504;SDS011;5809;53.262;10.408;2024-02-16T11:22:52;1.77;;;1.50;;
11504;SDS011;5809;53.262;10.408;2024-02-16T11:25:19;2.47;;;1.60;;
11504;SDS011;5809;53.262;10.408;2024-02-16T11:27:58;2.17;;;1.40;;
11504;SDS011;5809;53.262;10.408;2024-02-16T11:30:26;2.28;;;1.60;;
11504;SDS011;5809;53.262;10.408;2024-02-16T11:32:53;6.32;;;1.60;;
11504;SDS011;5809;53.262;10.408;2024-02-16T11:35:20;4.00;;;1.75;;
11504;SDS011;5809;53.262;10.408;2024-02-16T11:37:47;2.75;;;1.77;;
11504;SDS011;5809;53.262;10.408;2024-02-16T11:40:14;3.47;;;1.60;;
11504;SDS011;5809;53.262;10.408;2024-02-16T11:42:42;4.75;;;1.67;;
11504;SDS011;5809;53.262;10.408;2024-02-16T11:45:11;3.22;;;1.70;;
11504;SDS011;5809;53.262;10.408;2024-02-16T11:47:38;2.17;;;1.77;;
11504;SDS011;5809;53.262;10.408;2024-02-16T11:50:06;3.63;;;1.67;;
11504;SDS011;5809;53.262;10.408;2024-02-16T11:52:36;3.17;;;1.70;;
11504;SDS011;5809;53.262;10.408;2024-02-16T11:55:04;2.72;;;1.63;;
11504;SDS011;5809;53.262;10.408;2024-02-16T11:57:34;3.92;;;1.88;;
11504;SDS011;5809;53.262;10.408;2024-02-16T12:00:03;4.57;;;2.00;;
11504;SDS011;5809;53.262;10.408;2024-02-16T12:02:34;3.35;;;1.70;;
11504;SDS011;5809;53.262;10.408;2024-02-16T12:05:01;3.67;;;1.92;;
11504;SDS011;5809;53.262;10.408;2024-02-16T12:07:28;3.83;;;1.88;;
11504;SDS011;5809;53.262;10.408;2024-02-16T12:09:56;6.05;;;2.00;;
11504;SDS011;5809;53.262;10.408;2024-02-16T12:12:23;2.92;;;1.90;;
11504;SDS011;5809;53.262;10.408;2024-02-16T12:14:50;3.42;;;1.80;;
11504;SDS011;5809;53.262;10.408;2024-02-16T12:17:19;5.95;;;2.38;;
11504;SDS011;5809;53.262;10.408;2024-02-16T12:19:46;5.13;;;2.33;;
11504;SDS011;5809;53.262;10.408;2024-02-16T12:22:16;5.78;;;1.88;;
11504;SDS011;5809;53.262;10.408;2024-02-16T12:24:44;5.95;;;1.95;;
11504;SDS011;5809;53.262;10.408;2024-02-16T12:27:10;3.58;;;1.63;;
11504;SDS011;5809;53.262;10.408;2024-02-16T12:29:38;4.60;;;2.08;;
11504;SDS011;5809;53.262;10.408;2024-02-16T12:32:05;4.50;;;1.88;;
11504;SDS011;5809;53.262;10.408;2024-02-16T12:34:35;4.47;;;2.60;;
11504;SDS011;5809;53.262;10.408;2024-02-16T12:37:04;6.05;;;2.20;;
11504;SDS011;5809;53.262;10.408;2024-02-16T12:39:32;3.80;;;2.00;;
11504;SDS011;5809;53.262;10.408;2024-02-16T12:41:59;2.70;;;1.80;;
11504;SDS011;5809;53.262;10.408;2024-02-16T12:44:26;5.65;;;2.20;;
11504;SDS011;5809;53.262;10.408;2024-02-16T12:46:53;3.45;;;2.10;;
11504;SDS011;5809;53.262;10.408;2024-02-16T12:49:20;5.78;;;2.35;;
11504;SDS011;5809;53.262;10.408;2024-02-16T12:51:48;2.47;;;2.10;;
11504;SDS011;5809;53.262;10.408;2024-02-16T12:54:16;8.88;;;2.40;;
11504;SDS011;5809;53.262;10.408;2024-02-16T12:56:44;3.63;;;1.92;;
11504;SDS011;5809;53.262;10.408;2024-02-16T12:59:10;5.13;;;2.55;;
11504;SDS011;5809;53.262;10.408;2024-02-16T13:01:37;4.57;;;2.47;;
11504;SDS011;5809;53.262;10.408;2024-02-16T13:04:05;7.53;;;2.42;;
11504;SDS011;5809;53.262;10.408;2024-02-16T13:06:32;4.85;;;2.40;;
11504;SDS011;5809;53.262;10.408;2024-02-16T13:09:00;3.05;;;2.10;;
11504;SDS011;5809;53.262;10.408;2024-02-16T13:11:27;5.38;;;2.42;;
11504;SDS011;5809;53.262;10.408;2024-02-16T13:13:54;4.32;;;2.58;;
11504;SDS011;5809;53.262;10.408;2024-02-16T13:16:21;7.13;;;2.97;;
11504;SDS011;5809;53.262;10.408;2024-02-16T13:18:48;6.47;;;2.25;;
11504;SDS011;5809;53.262;10.408;2024-02-16T13:21:14;5.38;;;2.33;;
11504;SDS011;5809;53.262;10.408;2024-02-16T13:23:41;7.13;;;2.55;;
11504;SDS011;5809;53.262;10.408;2024-02-16T13:26:10;6.20;;;2.70;;
11504;SDS011;5809;53.262;10.408;2024-02-16T13:28:37;3.67;;;2.42;;
11504;SDS011;5809;53.262;10.408;2024-02-16T13:31:04;4.93;;;3.58;;
11504;SDS011;5809;53.262;10.408;2024-02-16T13:33:31;5.25;;;4.47;;
11504;SDS011;5809;53.262;10.408;2024-02-16T13:35:57;12.55;;;9.35;;
11504;SDS011;5809;53.262;10.408;2024-02-16T13:38:25;6.97;;;2.88;;
11504;SDS011;5809;53.262;10.408;2024-02-16T13:40:51;3.38;;;2.80;;
11504;SDS011;5809;53.262;10.408;2024-02-16T13:43:19;4.75;;;2.67;;
11504;SDS011;5809;53.262;10.408;2024-02-16T13:45:50;4.22;;;2.78;;
11504;SDS011;5809;53.262;10.408;2024-02-16T13:48:17;6.03;;;2.80;;
11504;SDS011;5809;53.262;10.408;2024-02-16T13:50:45;4.30;;;2.50;;
11504;SDS011;5809;53.262;10.408;2024-02-16T13:53:13;5.45;;;2.60;;
11504;SDS011;5809;53.262;10.408;2024-02-16T13:55:40;6.82;;;2.85;;
11504;SDS011;5809;53.262;10.408;2024-02-16T13:58:07;4.25;;;3.00;;
11504;SDS011;5809;53.262;10.408;2024-02-16T14:00:36;4.35;;;2.70;;
11504;SDS011;5809;53.262;10.408;2024-02-16T14:03:03;4.88;;;2.80;;
11504;SDS011;5809;53.262;10.408;2024-02-16T14:05:31;5.00;;;2.72;;
11504;SDS011;5809;53.262;10.408;2024-02-16T14:07:58;4.65;;;2.75;;
11504;SDS011;5809;53.262;10.408;2024-02-16T14:10:25;5.03;;;3.00;;
11504;SDS011;5809;53.262;10.408;2024-02-16T14:12:52;6.15;;;3.35;;
11504;SDS011;5809;53.262;10.408;2024-02-16T14:15:18;5.03;;;3.15;;
11504;SDS011;5809;53.262;10.408;2024-02-16T14:17:47;5.28;;;2.90;;
11504;SDS011;5809;53.262;10.408;2024-02-16T14:20:13;6.50;;;2.90;;
11504;SDS011;5809;53.262;10.408;2024-02-16T14:22:40;8.32;;;3.22;;
11504;SDS011;5809;53.262;10.408;2024-02-16T14:25:07;7.13;;;3.47;;
11504;SDS011;5809;53.262;10.408;2024-02-16T14:27:38;5.10;;;3.17;;
11504;SDS011;5809;53.262;10.408;2024-02-16T14:30:06;6.20;;;3.35;;
11504;SDS011;5809;53.262;10.408;2024-02-16T14:32:34;5.13;;;3.50;;
11504;SDS011;5809;53.262;10.408;2024-02-16T14:35:02;9.88;;;3.45;;
11504;SDS011;5809;53.262;10.408;2024-02-16T14:37:30;3.92;;;3.17;;
11504;SDS011;5809;53.262;10.408;2024-02-16T14:39:57;5.00;;;3.28;;
11504;SDS011;5809;53.262;10.408;2024-02-16T14:42:25;7.38;;;3.78;;
11504;SDS011;5809;53.262;10.408;2024-02-16T14:44:53;7.82;;;3.50;;
11504;SDS011;5809;53.262;10.408;2024-02-16T14:47:20;5.93;;;3.30;;
11504;SDS011;5809;53.262;10.408;2024-02-16T14:49:48;8.68;;;3.70;;